createdAt,value
2023-01-29T00:02:12.665Z,98535.35
2023-01-29T00:04:50.093Z,98535.91
2023-01-29T00:07:19.905Z,98539.06
2023-01-29T00:09:49.763Z,98540.30
2023-01-29T00:12:19.943Z,98540.16
2023-01-29T00:14:49.205Z,98547.10
2023-01-29T00:17:16.024Z,98551.36
2023-01-29T00:19:42.885Z,98553.34
2023-01-29T00:22:09.993Z,98558.09
2023-01-29T00:24:39.623Z,98555.27
2023-01-29T00:27:06.630Z,98557.90
2023-01-29T00:29:33.535Z,98557.46
2023-01-29T00:32:03.192Z,98560.83
2023-01-29T00:34:30.082Z,98561.10
2023-01-29T00:37:04.086Z,98566.90
2023-01-29T00:39:47.520Z,98569.33
2023-01-29T00:42:33.508Z,98573.19
2023-01-29T00:45:00.573Z,98572.42
2023-01-29T00:47:30.212Z,98576.25
2023-01-29T00:49:57.536Z,98576.31
2023-01-29T00:52:26.366Z,98576.88
2023-01-29T00:54:57.968Z,98577.97
2023-01-29T00:57:27.307Z,98582.02
2023-01-29T00:59:56.628Z,98582.56
2023-01-29T01:02:42.929Z,98581.84
2023-01-29T01:05:15.733Z,98581.21
2023-01-29T01:07:44.917Z,98585.80
2023-01-29T01:10:21.089Z,98585.80
2023-01-29T01:13:02.152Z,98586.52
2023-01-29T01:15:31.978Z,98581.37
2023-01-29T01:18:00.829Z,98588.00
2023-01-29T01:20:29.851Z,98587.66
2023-01-29T01:22:57.101Z,98588.36
2023-01-29T01:25:26.200Z,98590.77
2023-01-29T01:27:53.524Z,98592.22
2023-01-29T01:30:21.342Z,98591.54
2023-01-29T01:32:48.951Z,98588.93
2023-01-29T01:35:19.943Z,98586.05
2023-01-29T01:37:47.708Z,98587.61
2023-01-29T01:40:18.943Z,98586.90
2023-01-29T01:42:50.971Z,98585.33
2023-01-29T01:45:27.986Z,98587.05
2023-01-29T01:48:12.499Z,98586.21
2023-01-29T01:50:42.737Z,98584.05
2023-01-29T01:53:17.160Z,98587.40
2023-01-29T01:55:50.629Z,98593.40
2023-01-29T01:58:35.467Z,98593.06
2023-01-29T02:01:10.243Z,98593.45
2023-01-29T02:04:12.466Z,98587.85
2023-01-29T02:06:59.256Z,98589.99
2023-01-29T02:09:36.396Z,98588.97
2023-01-29T02:12:12.116Z,98589.13
2023-01-29T02:14:41.044Z,98586.05
2023-01-29T02:17:12.217Z,98586.10
2023-01-29T02:20:04.179Z,98588.67
2023-01-29T02:23:03.399Z,98589.42
2023-01-29T02:26:02.503Z,98590.80
2023-01-29T02:28:54.530Z,98591.19
2023-01-29T02:31:27.174Z,98588.36
2023-01-29T02:34:15.678Z,98591.60
2023-01-29T02:37:09.139Z,98593.98
2023-01-29T02:39:53.095Z,98589.81
2023-01-29T02:42:50.738Z,98587.48
2023-01-29T02:45:52.351Z,98589.27
2023-01-29T02:48:25.901Z,98591.07
2023-01-29T02:51:06.975Z,98595.55
2023-01-29T02:53:49.755Z,98599.50
2023-01-29T02:56:52.762Z,98598.27
2023-01-29T02:59:35.008Z,98598.11
2023-01-29T03:02:13.386Z,98600.61
2023-01-29T03:04:45.171Z,98605.59
2023-01-29T03:07:50.697Z,98607.88
2023-01-29T03:10:36.673Z,98613.02
2023-01-29T03:13:15.871Z,98613.88
2023-01-29T03:15:47.886Z,98609.67
2023-01-29T03:18:30.185Z,98610.44
2023-01-29T03:21:28.157Z,98609.42
2023-01-29T03:24:16.449Z,98604.39
2023-01-29T03:27:03.429Z,98609.41
2023-01-29T03:29:56.530Z,98608.09
2023-01-29T03:32:29.769Z,98605.90
2023-01-29T03:35:03.610Z,98608.64
2023-01-29T03:37:47.345Z,98609.83
2023-01-29T03:40:17.019Z,98611.56
2023-01-29T03:43:10.237Z,98615.46
2023-01-29T03:45:57.774Z,98618.27
2023-01-29T03:48:39.101Z,98619.11
2023-01-29T03:51:24.134Z,98622.33
2023-01-29T03:54:08.450Z,98617.48
2023-01-29T03:56:56.806Z,98617.52
2023-01-29T03:59:40.634Z,98617.23
2023-01-29T04:02:27.356Z,98617.91
2023-01-29T04:05:05.363Z,98612.60
2023-01-29T04:07:36.049Z,98614.15
2023-01-29T04:10:12.504Z,98617.39
2023-01-29T04:12:47.870Z,98620.17
2023-01-29T04:15:21.891Z,98625.85
2023-01-29T04:17:52.231Z,98626.80
2023-01-29T04:20:29.510Z,98626.97
2023-01-29T04:22:56.935Z,98627.60
2023-01-29T04:25:28.421Z,98630.35
2023-01-29T04:28:05.171Z,98633.20
2023-01-29T04:31:00.483Z,98638.10
2023-01-29T04:33:58.380Z,98643.79
2023-01-29T04:36:44.694Z,98646.05
2023-01-29T04:39:17.638Z,98646.46
2023-01-29T04:42:05.406Z,98651.67
2023-01-29T04:44:40.897Z,98651.04
2023-01-29T04:47:10.313Z,98650.81
2023-01-29T04:49:46.300Z,98649.71
2023-01-29T04:52:20.383Z,98647.92
2023-01-29T04:55:25.009Z,98651.00
2023-01-29T04:58:06.094Z,98651.98
2023-01-29T05:00:40.684Z,98656.65
2023-01-29T05:03:13.090Z,98660.96
2023-01-29T05:05:43.780Z,98661.36
2023-01-29T05:08:18.027Z,98662.10
2023-01-29T05:10:48.181Z,98668.36
2023-01-29T05:13:17.798Z,98673.31
2023-01-29T05:15:50.100Z,98674.46
2023-01-29T05:18:17.049Z,98673.63
2023-01-29T05:20:47.494Z,98670.39
2023-01-29T05:23:22.793Z,98674.92
2023-01-29T05:25:52.208Z,98677.30
2023-01-29T05:28:19.297Z,98679.51
2023-01-29T05:30:48.662Z,98684.30
2023-01-29T05:33:23.211Z,98685.84
2023-01-29T05:35:50.408Z,98686.58
2023-01-29T05:38:18.533Z,98689.70
2023-01-29T05:57:20.468Z,98696.52
2023-01-29T06:04:05.817Z,98707.54
2023-01-29T06:14:32.338Z,98718.41
2023-01-29T06:17:43.199Z,98721.52
2023-01-29T06:24:29.330Z,98730.39
2023-01-29T06:27:36.577Z,98732.81
2023-01-29T06:34:24.602Z,98743.27
2023-01-29T06:45:15.169Z,98752.73
2023-01-29T06:56:02.086Z,98760.27
2023-01-29T07:02:52.981Z,98768.21
2023-01-29T07:06:01.486Z,98770.77
2023-01-29T07:12:46.238Z,98775.72
2023-01-29T07:23:34.913Z,98773.10
2023-01-29T07:30:20.775Z,98778.36
2023-01-29T07:37:08.112Z,98782.02
2023-01-29T07:43:52.999Z,98794.23
2023-01-29T07:50:39.230Z,98794.42
2023-01-29T08:01:37.989Z,98796.13
2023-01-29T08:12:45.012Z,98790.91
2023-01-29T08:23:41.104Z,98804.39
2023-01-29T08:34:11.365Z,98812.46
2023-01-29T08:36:39.140Z,98815.66
2023-01-29T08:43:24.281Z,98814.11
2023-01-29T09:03:07.518Z,98816.11
2023-01-29T09:09:51.774Z,98806.50
2023-01-29T09:16:35.739Z,98796.04
2023-01-29T09:31:39.832Z,98792.96
2023-01-29T09:38:26.568Z,98790.11
2023-01-29T09:49:38.910Z,98793.02
2023-01-29T10:00:49.375Z,98795.52
2023-01-29T10:20:23.701Z,98774.55
2023-01-29T10:53:42.763Z,98739.16
2023-01-29T11:04:46.483Z,98727.08
2023-01-29T11:15:40.193Z,98721.73
2023-01-29T11:26:23.950Z,98712.28
2023-01-29T11:39:16.225Z,98710.63
2023-01-29T11:41:53.902Z,98710.73
2023-01-29T11:44:30.969Z,98714.83
2023-01-29T11:47:14.962Z,98715.69
2023-01-29T11:50:02.959Z,98711.85
2023-01-29T11:52:41.052Z,98711.06
2023-01-29T11:55:18.117Z,98708.48
2023-01-29T11:58:08.919Z,98709.14
2023-01-29T12:00:41.787Z,98708.00
2023-01-29T12:03:20.271Z,98703.55
2023-01-29T12:06:36.377Z,98697.63
2023-01-29T12:09:17.057Z,98692.88
2023-01-29T12:11:47.081Z,98688.95
2023-01-29T12:14:34.392Z,98686.77
2023-01-29T12:17:19.971Z,98685.77
2023-01-29T12:20:01.710Z,98691.39
2023-01-29T12:22:53.558Z,98704.29
2023-01-29T12:25:34.221Z,98705.98
2023-01-29T12:28:34.645Z,98700.62
2023-01-29T12:31:19.615Z,98700.02
2023-01-29T12:33:54.298Z,98703.59
2023-01-29T12:36:34.646Z,98706.78
2023-01-29T12:39:05.544Z,98707.05
2023-01-29T12:41:41.624Z,98704.19
2023-01-29T12:44:46.910Z,98702.75
2023-01-29T12:47:35.918Z,98691.41
2023-01-29T12:50:33.429Z,98695.64
2023-01-29T12:53:17.122Z,98700.05
2023-01-29T12:55:49.997Z,98700.30
2023-01-29T12:58:24.521Z,98700.83
2023-01-29T13:00:57.378Z,98698.61
2023-01-29T13:03:34.529Z,98692.34
2023-01-29T13:06:13.261Z,98694.72
2023-01-29T13:08:41.532Z,98690.98
2023-01-29T13:11:19.529Z,98692.80
2023-01-29T13:14:04.483Z,98698.02
2023-01-29T13:16:45.585Z,98694.56
2023-01-29T13:19:41.132Z,98692.64
2023-01-29T13:22:24.072Z,98691.35
2023-01-29T13:25:20.102Z,98697.70
2023-01-29T13:27:50.639Z,98697.17
2023-01-29T13:30:42.154Z,98698.84
2023-01-29T13:33:31.806Z,98704.19
2023-01-29T13:36:00.329Z,98704.41
2023-01-29T13:38:58.204Z,98702.48
2023-01-29T13:41:36.338Z,98708.17
2023-01-29T13:44:20.467Z,98707.81
2023-01-29T13:47:09.781Z,98708.38
2023-01-29T13:49:58.864Z,98709.39
2023-01-29T13:52:45.315Z,98708.46
2023-01-29T13:55:38.126Z,98709.22
2023-01-29T14:03:00.479Z,98713.70
2023-01-29T14:05:53.576Z,98712.21
2023-01-29T14:08:47.726Z,98709.80
2023-01-29T14:11:37.573Z,98712.89
2023-01-29T14:14:49.682Z,98710.23
2023-01-29T14:18:04.225Z,98706.25
2023-01-29T14:21:34.755Z,98699.28
2023-01-29T14:24:50.297Z,98698.33
2023-01-29T14:27:49.164Z,98702.21
2023-01-29T14:30:32.624Z,98705.52
2023-01-29T14:33:31.820Z,98703.54
2023-01-29T14:36:06.856Z,98699.30
2023-01-29T14:38:36.937Z,98702.33
2023-01-29T14:41:37.272Z,98695.91
2023-01-29T14:44:47.614Z,98695.98
2023-01-29T14:47:29.733Z,98696.19
2023-01-29T14:50:03.816Z,98695.08
2023-01-29T14:52:42.025Z,98694.50
2023-01-29T14:55:52.816Z,98694.98
2023-01-29T14:58:46.350Z,98697.28
2023-01-29T15:01:33.645Z,98692.84
2023-01-29T15:04:12.814Z,98695.90
2023-01-29T15:06:50.569Z,98695.73
2023-01-29T15:09:57.275Z,98694.23
2023-01-29T15:12:50.466Z,98699.88
2023-01-29T15:15:47.787Z,98704.52
2023-01-29T15:18:45.677Z,98701.93
2023-01-29T15:21:23.612Z,98707.05
2023-01-29T15:24:30.566Z,98708.98
2023-01-29T15:27:07.099Z,98712.56
2023-01-29T15:29:38.335Z,98716.92
2023-01-29T15:32:09.597Z,98714.57
2023-01-29T15:34:42.638Z,98716.09
2023-01-29T15:37:30.470Z,98715.15
2023-01-29T15:40:02.387Z,98716.97
2023-01-29T15:42:46.851Z,98717.00
2023-01-29T15:45:32.901Z,98718.19
2023-01-29T15:48:30.533Z,98721.85
2023-01-29T15:51:06.181Z,98723.48
2023-01-29T15:53:47.255Z,98724.90
2023-01-29T15:56:20.300Z,98723.49
2023-01-29T15:58:52.391Z,98730.88
2023-01-29T16:01:34.293Z,98736.63
2023-01-29T16:04:10.812Z,98736.48
2023-01-29T16:06:43.942Z,98735.36
2023-01-29T16:09:22.947Z,98740.14
2023-01-29T16:11:53.721Z,98744.23
2023-01-29T16:14:25.766Z,98742.27
2023-01-29T16:16:54.321Z,98746.13
2023-01-29T16:19:27.127Z,98745.88
2023-01-29T16:23:05.931Z,98743.42
2023-01-29T16:25:44.685Z,98748.98
2023-01-29T16:28:18.190Z,98745.40
2023-01-29T16:30:49.265Z,98749.35
2023-01-29T16:33:19.862Z,98751.32
2023-01-29T16:35:55.223Z,98750.58
2023-01-29T16:41:27.193Z,98748.44
2023-01-29T16:44:32.508Z,98750.56
2023-01-29T16:47:15.150Z,98747.63
2023-01-29T16:49:52.518Z,98748.83
2023-01-29T16:55:50.796Z,98741.98
2023-01-29T16:58:49.581Z,98741.98
2023-01-29T17:01:31.021Z,98739.02
2023-01-29T17:04:11.330Z,98739.86
2023-01-29T17:06:43.968Z,98738.27
2023-01-29T17:09:39.633Z,98738.46
2023-01-29T17:12:43.015Z,98747.44
2023-01-29T17:16:11.408Z,98744.88
2023-01-29T17:18:54.320Z,98743.16
2023-01-29T17:21:24.951Z,98746.80
2023-01-29T17:24:00.545Z,98743.16
2023-01-29T17:26:32.713Z,98744.36
2023-01-29T17:29:12.127Z,98747.88
2023-01-29T17:31:42.227Z,98746.67
2023-01-29T17:34:16.183Z,98748.07
2023-01-29T17:37:02.837Z,98744.48
2023-01-29T17:39:32.389Z,98747.27
2023-01-29T17:42:19.179Z,98747.42
2023-01-29T17:44:58.168Z,98749.52
2023-01-29T17:47:43.118Z,98750.39
2023-01-29T17:50:30.414Z,98745.46
2023-01-29T17:53:00.569Z,98751.79
2023-01-29T17:55:28.994Z,98754.17
2023-01-29T17:58:00.559Z,98751.70
2023-01-29T18:00:30.324Z,98749.34
2023-01-29T18:03:02.666Z,98750.88
2023-01-29T18:05:30.945Z,98753.54
2023-01-29T18:07:59.247Z,98754.41
2023-01-29T18:10:30.674Z,98753.63
2023-01-29T18:24:47.230Z,98749.80
2023-01-29T18:27:17.987Z,98750.32
2023-01-29T18:29:50.522Z,98752.08
2023-01-29T18:32:29.466Z,98746.27
2023-01-29T18:35:06.278Z,98742.95
2023-01-29T18:37:34.577Z,98740.40
2023-01-29T18:40:19.838Z,98740.88
2023-01-29T18:42:49.228Z,98741.05
2023-01-29T18:45:17.619Z,98739.82
2023-01-29T18:47:46.445Z,98737.11
2023-01-29T18:50:14.615Z,98737.34
2023-01-29T18:52:45.323Z,98743.59
2023-01-29T18:55:15.760Z,98740.27
2023-01-29T18:58:26.997Z,98740.05
2023-01-29T19:00:33.187Z,98739.77
2023-01-29T19:03:01.512Z,98737.86
2023-01-29T19:05:29.720Z,98737.80
2023-01-29T19:07:58.083Z,98738.50
2023-01-29T19:10:26.525Z,98739.88
2023-01-29T19:12:54.746Z,98737.57
2023-01-29T19:15:23.475Z,98740.08
2023-01-29T19:17:54.707Z,98743.27
2023-01-29T19:20:26.029Z,98745.39
2023-01-29T19:23:18.590Z,98744.84
2023-01-29T19:26:02.426Z,98745.57
2023-01-29T19:28:36.054Z,98746.36
2023-01-29T19:31:04.920Z,98746.73
2023-01-29T19:33:33.288Z,98748.05
2023-01-29T19:36:02.161Z,98750.46
2023-01-29T19:38:33.733Z,98751.58
2023-01-29T19:41:02.427Z,98751.84
2023-01-29T19:43:37.399Z,98753.05
2023-01-29T19:46:11.996Z,98753.48
2023-01-29T19:48:50.760Z,98749.39
2023-01-29T19:51:22.119Z,98756.07
2023-01-29T19:53:54.491Z,98759.95
2023-01-29T19:56:28.614Z,98758.83
2023-01-29T19:59:00.592Z,98759.64
2023-01-29T20:01:34.415Z,98762.98
2023-01-29T20:04:03.899Z,98760.81
2023-01-29T20:06:32.520Z,98761.21
2023-01-29T20:09:03.031Z,98761.19
2023-01-29T20:11:32.101Z,98762.67
2023-01-29T20:14:05.126Z,98764.21
2023-01-29T20:16:37.206Z,98767.83
2023-01-29T20:19:14.269Z,98772.34
2023-01-29T20:21:48.953Z,98772.63
2023-01-29T20:24:18.200Z,98775.73
2023-01-29T20:30:11.385Z,98786.44
2023-01-29T20:32:40.549Z,98788.75
2023-01-29T20:35:38.978Z,98791.09
2023-01-29T20:38:11.974Z,98785.95
2023-01-29T20:41:03.454Z,98785.54
2023-01-29T20:43:32.224Z,98792.17
2023-01-29T20:46:04.039Z,98788.42
2023-01-29T20:48:33.378Z,98786.80
2023-01-29T20:51:11.218Z,98788.75
2023-01-29T20:53:41.332Z,98795.23
2023-01-29T20:56:10.253Z,98789.68
2023-01-29T20:58:43.979Z,98789.45
2023-01-29T21:01:17.114Z,98792.30
2023-01-29T21:03:46.669Z,98793.06
2023-01-29T21:06:16.014Z,98787.87
2023-01-29T21:08:44.432Z,98784.88
2023-01-29T21:11:15.493Z,98788.69
2023-01-29T21:13:44.096Z,98791.59
2023-01-29T21:16:12.914Z,98794.34
2023-01-29T21:18:44.448Z,98794.10
2023-01-29T21:21:15.270Z,98797.30
2023-01-29T21:23:43.511Z,98794.96
2023-01-29T21:26:14.999Z,98795.09
2023-01-29T21:28:44.648Z,98791.14
2023-01-29T21:31:17.871Z,98795.31
2023-01-29T21:33:46.291Z,98797.30
2023-01-29T21:36:15.792Z,98793.95
2023-01-29T21:38:44.101Z,98793.27
2023-01-29T21:41:12.915Z,98793.66
2023-01-29T21:43:41.057Z,98793.16
2023-01-29T21:46:12.269Z,98788.27
2023-01-29T21:48:41.714Z,98787.33
2023-01-29T21:51:09.958Z,98788.92
2023-01-29T21:53:38.292Z,98788.05
2023-01-29T21:56:06.653Z,98783.95
2023-01-29T21:58:36.085Z,98782.86
2023-01-29T22:01:35.187Z,98780.74
2023-01-29T22:03:58.096Z,98777.46
2023-01-29T22:06:26.805Z,98777.83
2023-01-29T22:08:54.968Z,98774.60
2023-01-29T22:11:23.137Z,98772.79
2023-01-29T22:13:51.170Z,98770.13
2023-01-29T22:16:24.747Z,98770.91
2023-01-29T22:18:52.983Z,98769.25
2023-01-29T22:21:22.610Z,98772.45
2023-01-29T22:23:52.192Z,98770.94
2023-01-29T22:26:20.484Z,98767.73
2023-01-29T22:28:50.164Z,98764.96
2023-01-29T22:31:19.641Z,98763.52
2023-01-29T22:33:49.133Z,98763.73
2023-01-29T22:36:17.388Z,98763.65
2023-01-29T22:38:46.856Z,98767.81
2023-01-29T22:41:15.547Z,98762.16
2023-01-29T22:43:44.221Z,98762.95
2023-01-29T22:46:32.497Z,98761.66
2023-01-29T22:49:00.617Z,98761.41
2023-01-29T22:51:29.064Z,98758.70
2023-01-29T22:53:57.915Z,98753.73
2023-01-29T22:56:28.314Z,98755.33
2023-01-29T22:59:00.521Z,98753.16
2023-01-29T23:01:31.417Z,98753.20
2023-01-29T23:03:59.604Z,98749.11
2023-01-29T23:06:27.724Z,98749.06
2023-01-29T23:08:56.194Z,98746.21
2023-01-29T23:11:24.360Z,98746.63
2023-01-29T23:13:55.682Z,98744.58
2023-01-29T23:16:28.008Z,98745.10
2023-01-29T23:18:56.744Z,98744.93
2023-01-29T23:21:25.585Z,98744.53
2023-01-29T23:23:55.564Z,98744.34
2023-01-29T23:26:43.050Z,98739.46
2023-01-29T23:29:11.704Z,98742.55
2023-01-29T23:31:39.856Z,98740.63
2023-01-29T23:34:08.043Z,98733.70
2023-01-29T23:36:36.159Z,98731.73
2023-01-29T23:39:05.012Z,98730.77
2023-01-29T23:41:33.553Z,98728.05
2023-01-29T23:44:01.692Z,98725.70
2023-01-29T23:46:30.291Z,98725.69
2023-01-29T23:49:01.586Z,98724.95
2023-01-29T23:51:29.880Z,98724.80
2023-01-29T23:53:58.080Z,98724.32
2023-01-29T23:56:27.917Z,98724.79
2023-01-29T23:58:57.464Z,98723.14
